createdAt,value
2022-10-13T00:00:13.489Z,9.88
2022-10-13T00:02:40.947Z,11.50
2022-10-13T00:05:08.603Z,10.93
2022-10-13T00:07:35.947Z,10.90
2022-10-13T00:10:04.954Z,10.27
2022-10-13T00:12:34.991Z,8.88
2022-10-13T00:15:02.516Z,11.93
2022-10-13T00:17:29.919Z,9.80
2022-10-13T00:19:57.379Z,10.52
2022-10-13T00:22:24.782Z,8.50
2022-10-13T00:24:52.446Z,13.02
2022-10-13T00:27:21.406Z,11.25
2022-10-13T00:32:30.178Z,11.07
2022-10-13T00:34:57.974Z,9.82
2022-10-13T00:37:25.391Z,9.85
2022-10-13T00:39:52.799Z,9.15
2022-10-13T00:42:23.321Z,11.77
2022-10-13T00:45:01.059Z,10.13
2022-10-13T00:47:29.633Z,8.43
2022-10-13T00:49:57.127Z,11.63
2022-10-13T00:52:25.080Z,8.35
2022-10-13T00:54:52.757Z,8.40
2022-10-13T00:57:21.657Z,8.77
2022-10-13T00:59:49.268Z,9.07
2022-10-13T01:02:17.054Z,8.63
2022-10-13T01:04:46.076Z,15.82
2022-10-13T01:07:14.752Z,8.90
2022-10-13T01:09:42.489Z,11.40
2022-10-13T01:12:13.958Z,10.20
2022-10-13T01:14:47.502Z,9.15
2022-10-13T01:17:18.134Z,8.45
2022-10-13T01:19:58.523Z,7.32
2022-10-13T01:22:33.195Z,12.27
2022-10-13T01:25:04.170Z,10.77
2022-10-13T01:27:40.226Z,13.75
2022-10-13T01:30:11.680Z,11.73
2022-10-13T01:32:44.907Z,9.10
2022-10-13T01:35:14.798Z,8.55
2022-10-13T01:37:45.535Z,10.38
2022-10-13T01:40:14.599Z,10.85
2022-10-13T01:42:44.349Z,9.60
2022-10-13T01:45:15.299Z,11.85
2022-10-13T01:47:43.242Z,8.70
2022-10-13T01:50:10.726Z,9.57
2022-10-13T01:52:38.926Z,11.98
2022-10-13T01:55:07.334Z,11.63
2022-10-13T01:57:35.682Z,10.18
2022-10-13T02:00:05.131Z,12.73
2022-10-13T02:02:38.003Z,11.85
2022-10-13T02:05:10.830Z,15.50
2022-10-13T02:07:41.348Z,10.52
2022-10-13T02:10:12.970Z,12.80
2022-10-13T02:12:42.634Z,8.25
2022-10-13T02:15:12.620Z,13.63
2022-10-13T02:17:42.281Z,10.52
2022-10-13T02:20:10.359Z,13.68
2022-10-13T02:22:38.887Z,12.15
2022-10-13T02:25:06.976Z,10.43
2022-10-13T02:27:34.534Z,12.20
2022-10-13T02:30:01.938Z,10.65
2022-10-13T02:32:29.531Z,9.40
2022-10-13T02:34:58.277Z,12.07
2022-10-13T02:37:25.900Z,10.98
2022-10-13T02:39:53.289Z,11.02
2022-10-13T02:42:21.075Z,11.18
2022-10-13T02:44:48.660Z,12.55
2022-10-13T02:47:16.003Z,8.45
2022-10-13T02:49:43.331Z,11.45
2022-10-13T02:52:12.018Z,9.55
2022-10-13T02:54:39.417Z,11.93
2022-10-13T02:57:06.766Z,11.20
2022-10-13T02:59:34.140Z,13.10
2022-10-13T03:02:01.562Z,8.40
2022-10-13T03:04:29.286Z,9.68
2022-10-13T03:06:56.656Z,9.77
2022-10-13T03:09:25.405Z,10.50
2022-10-13T03:11:52.801Z,15.02
2022-10-13T03:14:20.273Z,12.50
2022-10-13T03:16:47.719Z,10.18
2022-10-13T03:19:15.112Z,8.25
2022-10-13T03:21:42.522Z,11.63
2022-10-13T03:24:09.880Z,12.93
2022-10-13T03:26:38.628Z,11.65
2022-10-13T03:29:06.007Z,10.52
2022-10-13T03:31:33.514Z,9.65
2022-10-13T03:34:00.918Z,12.02
2022-10-13T03:36:28.287Z,9.95
2022-10-13T03:38:56.027Z,10.18
2022-10-13T03:41:23.421Z,14.68
2022-10-13T03:43:52.115Z,9.20
2022-10-13T03:46:19.737Z,11.43
2022-10-13T03:48:48.210Z,10.57
2022-10-13T03:51:16.819Z,9.45
2022-10-13T03:53:44.374Z,16.15
2022-10-13T03:56:13.735Z,14.10
2022-10-13T03:58:41.100Z,12.80
2022-10-13T04:01:09.955Z,13.55
2022-10-13T04:03:37.390Z,11.73
2022-10-13T04:06:06.176Z,12.00
2022-10-13T04:08:34.258Z,12.25
2022-10-13T04:11:02.011Z,11.60
2022-10-13T04:13:29.375Z,11.10
2022-10-13T04:15:56.716Z,12.25
2022-10-13T04:18:25.550Z,15.38
2022-10-13T04:20:52.927Z,12.82
2022-10-13T04:23:20.276Z,14.73
2022-10-13T04:25:47.772Z,11.68
2022-10-13T04:28:15.192Z,12.20
2022-10-13T04:30:47.096Z,11.80
2022-10-13T04:33:16.585Z,10.15
2022-10-13T04:35:45.339Z,12.15
2022-10-13T04:38:12.768Z,12.73
2022-10-13T04:40:40.152Z,10.13
2022-10-13T04:43:07.582Z,12.68
2022-10-13T04:45:34.938Z,12.10
2022-10-13T04:48:02.527Z,10.15
2022-10-13T04:50:29.919Z,13.20
2022-10-13T04:52:59.388Z,14.90
2022-10-13T04:55:26.802Z,13.15
2022-10-13T04:57:54.131Z,15.48
2022-10-13T05:00:21.683Z,12.25
2022-10-13T05:02:49.116Z,10.77
2022-10-13T05:05:16.461Z,13.20
2022-10-13T05:07:43.878Z,14.20
2022-10-13T05:10:12.705Z,14.27
2022-10-13T05:12:40.122Z,12.30
2022-10-13T05:15:08.108Z,10.88
2022-10-13T05:17:35.771Z,14.20
2022-10-13T05:20:03.408Z,11.35
2022-10-13T05:22:30.782Z,13.13
2022-10-13T05:24:58.141Z,18.85
2022-10-13T05:27:26.821Z,12.20
2022-10-13T05:29:54.243Z,13.25
2022-10-13T05:32:22.068Z,15.90
2022-10-13T05:34:49.671Z,15.07
2022-10-13T05:37:18.291Z,17.20
2022-10-13T05:39:48.799Z,10.60
2022-10-13T05:42:16.454Z,10.60
2022-10-13T05:44:45.305Z,10.38
2022-10-13T05:47:12.980Z,10.32
2022-10-13T05:49:40.985Z,12.10
2022-10-13T05:52:09.788Z,13.65
2022-10-13T05:54:38.760Z,12.13
2022-10-13T05:57:07.891Z,13.30
2022-10-13T05:59:37.666Z,13.18
2022-10-13T06:02:07.709Z,14.43
2022-10-13T06:04:36.731Z,13.02
2022-10-13T06:07:04.152Z,14.70
2022-10-13T06:09:34.498Z,12.25
2022-10-13T06:12:01.872Z,14.50
2022-10-13T06:14:29.245Z,12.57
2022-10-13T06:16:56.674Z,17.65
2022-10-13T06:19:25.400Z,14.70
2022-10-13T06:21:52.872Z,13.43
2022-10-13T06:24:20.445Z,11.98
2022-10-13T06:26:48.081Z,15.85
2022-10-13T06:29:15.447Z,15.32
2022-10-13T06:31:42.865Z,15.05
2022-10-13T06:34:10.263Z,17.42
2022-10-13T06:36:42.074Z,16.88
2022-10-13T06:39:10.326Z,12.73
2022-10-13T06:41:38.116Z,15.40
2022-10-13T06:44:05.581Z,14.57
2022-10-13T06:46:32.931Z,16.52
2022-10-13T06:49:00.321Z,15.70
2022-10-13T06:51:27.707Z,16.05
2022-10-13T06:53:57.787Z,20.25
2022-10-13T06:56:25.202Z,15.50
2022-10-13T06:58:52.585Z,19.88
2022-10-13T07:01:19.997Z,22.40
2022-10-13T07:03:49.445Z,14.70
2022-10-13T07:06:17.332Z,17.25
2022-10-13T07:08:45.135Z,13.30
2022-10-13T07:11:16.307Z,13.05
2022-10-13T07:13:46.532Z,15.52
2022-10-13T07:16:14.986Z,16.17
2022-10-13T07:18:42.389Z,15.63
2022-10-13T07:21:10.354Z,16.17
2022-10-13T07:23:37.714Z,14.50
2022-10-13T07:26:07.771Z,18.40
2022-10-13T07:28:36.571Z,15.75
2022-10-13T07:31:07.982Z,13.55
2022-10-13T07:33:35.425Z,15.98
2022-10-13T07:36:02.804Z,18.70
2022-10-13T07:38:30.171Z,14.10
2022-10-13T07:40:57.507Z,18.33
2022-10-13T07:43:24.916Z,16.80
2022-10-13T07:45:53.620Z,17.00
2022-10-13T07:50:53.287Z,14.77
2022-10-13T07:53:20.755Z,17.52
2022-10-13T07:55:48.109Z,13.70
2022-10-13T07:58:15.456Z,20.27
2022-10-13T08:00:42.901Z,19.42
2022-10-13T08:03:11.673Z,19.13
2022-10-13T08:05:39.236Z,19.48
2022-10-13T08:08:06.596Z,18.92
2022-10-13T08:10:33.982Z,18.63
2022-10-13T08:13:01.374Z,14.88
2022-10-13T08:15:28.769Z,14.50
2022-10-13T08:17:56.116Z,13.50
2022-10-13T08:20:28.865Z,16.50
2022-10-13T08:23:03.596Z,12.90
2022-10-13T08:25:30.966Z,15.73
2022-10-13T08:28:00.583Z,18.00
2022-10-13T08:30:28.246Z,14.43
2022-10-13T08:32:55.691Z,14.95
2022-10-13T08:35:23.060Z,13.68
2022-10-13T08:37:51.741Z,11.32
2022-10-13T08:40:21.077Z,14.85
2022-10-13T08:42:48.454Z,12.55
2022-10-13T08:45:40.230Z,12.73
2022-10-13T08:48:08.282Z,16.25
2022-10-13T08:50:37.447Z,14.95
2022-10-13T08:53:11.902Z,16.45
2022-10-13T08:55:42.152Z,13.30
2022-10-13T08:58:12.484Z,11.32
2022-10-13T09:00:39.908Z,13.38
2022-10-13T09:03:17.041Z,13.48
2022-10-13T09:05:46.596Z,13.82
2022-10-13T09:08:20.119Z,18.00
2022-10-13T09:10:48.797Z,13.98
2022-10-13T09:13:16.193Z,17.48
2022-10-13T09:15:44.172Z,13.52
2022-10-13T09:18:12.427Z,16.35
2022-10-13T09:20:39.905Z,18.23
2022-10-13T09:23:08.078Z,21.17
2022-10-13T09:25:41.839Z,13.90
2022-10-13T09:28:15.898Z,18.65
2022-10-13T09:30:46.419Z,14.57
2022-10-13T09:33:31.658Z,17.80
2022-10-13T09:36:22.833Z,13.88
2022-10-13T09:39:05.975Z,14.20
2022-10-13T09:41:35.517Z,18.33
2022-10-13T09:44:08.301Z,17.58
2022-10-13T09:46:37.406Z,17.52
2022-10-13T09:49:05.822Z,17.10
2022-10-13T09:51:37.565Z,15.60
2022-10-13T09:54:05.936Z,15.18
2022-10-13T09:56:37.466Z,15.18
2022-10-13T09:59:08.591Z,15.70
2022-10-13T10:01:39.082Z,16.33
2022-10-13T10:04:07.898Z,13.70
2022-10-13T10:06:35.654Z,18.67
2022-10-13T10:09:06.435Z,12.77
2022-10-13T10:11:38.483Z,16.80
2022-10-13T10:14:13.186Z,15.90
2022-10-13T10:16:42.050Z,17.70
2022-10-13T10:19:14.500Z,16.83
2022-10-13T10:21:44.782Z,14.50
2022-10-13T10:24:18.015Z,14.02
2022-10-13T10:26:52.082Z,14.57
2022-10-13T10:29:23.243Z,21.38
2022-10-13T10:31:56.594Z,15.68
2022-10-13T10:34:28.595Z,17.17
2022-10-13T10:37:04.572Z,19.52
2022-10-13T10:39:32.934Z,17.38
2022-10-13T10:42:04.037Z,18.00
2022-10-13T10:44:34.137Z,14.93
2022-10-13T10:47:03.181Z,17.30
2022-10-13T10:49:32.007Z,15.05
2022-10-13T10:51:59.782Z,15.02
2022-10-13T10:54:30.808Z,15.88
2022-10-13T10:57:01.455Z,14.00
2022-10-13T10:59:40.123Z,16.95
2022-10-13T11:02:19.983Z,15.30
2022-10-13T11:04:48.272Z,14.15
2022-10-13T11:07:35.678Z,16.73
2022-10-13T11:10:05.466Z,20.17
2022-10-13T11:12:47.779Z,14.48
2022-10-13T11:15:19.895Z,16.75
2022-10-13T11:17:47.283Z,14.73
2022-10-13T11:20:35.590Z,15.85
2022-10-13T11:23:17.848Z,17.05
2022-10-13T11:25:45.943Z,15.77
2022-10-13T11:28:28.244Z,14.60
2022-10-13T11:30:57.993Z,12.95
2022-10-13T11:33:49.297Z,18.23
2022-10-13T11:36:35.410Z,15.25
2022-10-13T11:39:08.040Z,16.40
2022-10-13T11:41:37.819Z,15.63
2022-10-13T11:44:09.118Z,18.30
2022-10-13T11:46:50.250Z,17.58
2022-10-13T11:49:39.920Z,11.80
2022-10-13T11:52:28.214Z,11.88
2022-10-13T11:54:56.613Z,16.20
2022-10-13T11:57:24.876Z,15.32
2022-10-13T11:59:55.341Z,17.02
2022-10-13T12:02:25.989Z,11.40
2022-10-13T12:05:01.263Z,15.13
2022-10-13T12:07:32.840Z,15.75
2022-10-13T12:10:00.284Z,12.65
2022-10-13T12:12:27.623Z,16.30
2022-10-13T12:14:55.684Z,17.75
2022-10-13T12:17:28.888Z,14.23
2022-10-13T12:19:58.051Z,12.38
2022-10-13T12:22:25.796Z,13.20
2022-10-13T12:25:00.475Z,12.95
2022-10-13T12:27:28.696Z,12.23
2022-10-13T12:29:56.089Z,15.93
2022-10-13T12:32:28.417Z,11.02
2022-10-13T12:34:55.980Z,13.60
2022-10-13T12:37:27.271Z,11.95
2022-10-13T12:39:55.306Z,9.70
2022-10-13T12:42:25.907Z,10.85
2022-10-13T12:44:53.430Z,11.73
2022-10-13T12:47:46.987Z,13.57
2022-10-13T12:50:38.328Z,13.32
2022-10-13T12:53:20.591Z,15.18
2022-10-13T12:55:56.201Z,13.23
2022-10-13T12:58:25.164Z,14.93
2022-10-13T13:00:56.828Z,15.23
2022-10-13T13:03:28.438Z,20.38
2022-10-13T13:06:08.646Z,12.73
2022-10-13T13:08:36.082Z,14.55
2022-10-13T13:11:04.638Z,16.50
2022-10-13T13:13:31.999Z,17.27
2022-10-13T13:16:14.163Z,15.90
2022-10-13T13:18:43.251Z,13.55
2022-10-13T13:21:12.374Z,19.88
2022-10-13T13:23:39.945Z,16.80
2022-10-13T13:26:11.872Z,15.63
2022-10-13T13:28:39.648Z,13.75
2022-10-13T13:31:07.101Z,16.80
2022-10-13T13:33:34.478Z,15.65
2022-10-13T13:36:03.243Z,12.38
2022-10-13T13:38:30.661Z,17.33
2022-10-13T13:41:01.430Z,17.15
2022-10-13T13:43:31.206Z,14.70
2022-10-13T13:45:58.548Z,16.90
2022-10-13T13:48:26.678Z,16.33
2022-10-13T13:50:54.040Z,25.20
2022-10-13T13:53:22.770Z,17.23
2022-10-13T13:55:50.300Z,15.77
2022-10-13T13:58:17.703Z,13.82
2022-10-13T14:00:45.022Z,15.68
2022-10-13T14:03:15.856Z,15.02
2022-10-13T14:05:46.527Z,13.23
2022-10-13T14:08:13.965Z,14.85
2022-10-13T14:10:42.721Z,15.27
2022-10-13T14:13:10.122Z,11.95
2022-10-13T14:15:37.496Z,14.82
2022-10-13T14:18:05.160Z,13.18
2022-10-13T14:20:32.503Z,14.18
2022-10-13T14:22:59.860Z,11.75
2022-10-13T14:25:27.237Z,10.25
2022-10-13T14:27:56.035Z,13.23
2022-10-13T14:30:23.361Z,14.45
2022-10-13T14:32:50.751Z,14.32
2022-10-13T14:35:18.204Z,12.00
2022-10-13T14:37:45.563Z,15.68
2022-10-13T14:40:12.959Z,11.20
2022-10-13T14:42:42.348Z,15.10
2022-10-13T14:45:12.990Z,13.02
2022-10-13T14:47:40.395Z,16.80
2022-10-13T14:50:08.251Z,11.75
2022-10-13T14:52:35.600Z,12.20
2022-10-13T14:55:02.975Z,16.38
2022-10-13T14:57:30.337Z,16.75
2022-10-13T15:00:01.666Z,14.55
2022-10-13T15:02:30.920Z,14.13
2022-10-13T15:04:58.864Z,17.58
2022-10-13T15:07:26.246Z,14.15
2022-10-13T15:10:04.753Z,15.20
2022-10-13T15:12:32.699Z,16.30
2022-10-13T15:15:00.092Z,15.43
2022-10-13T15:17:27.975Z,16.05
2022-10-13T15:19:56.763Z,17.13
2022-10-13T15:22:24.353Z,14.57
2022-10-13T15:24:51.971Z,19.70
2022-10-13T15:27:19.359Z,15.48
2022-10-13T15:29:46.769Z,20.35
2022-10-13T15:32:17.959Z,17.25
2022-10-13T15:34:45.599Z,18.58
2022-10-13T15:37:14.340Z,17.08
2022-10-13T15:39:41.706Z,15.75
2022-10-13T15:42:09.022Z,16.20
2022-10-13T15:45:08.611Z,22.23
2022-10-13T15:47:23.738Z,18.33
2022-10-13T15:49:51.084Z,15.48
2022-10-13T15:52:20.106Z,13.50
2022-10-13T15:54:51.232Z,15.07
2022-10-13T15:57:18.651Z,17.80
2022-10-13T15:59:46.083Z,13.75
2022-10-13T16:02:13.487Z,13.68
2022-10-13T16:04:40.826Z,16.70
2022-10-13T16:07:08.190Z,18.00
2022-10-13T16:09:36.889Z,17.48
2022-10-13T16:12:04.360Z,16.17
2022-10-13T16:14:31.719Z,17.30
2022-10-13T16:16:59.064Z,14.93
2022-10-13T16:19:26.403Z,18.13
2022-10-13T16:21:53.791Z,18.17
2022-10-13T16:24:21.151Z,15.40
2022-10-13T16:26:49.891Z,17.27
2022-10-13T16:29:17.776Z,20.95
2022-10-13T16:31:45.293Z,19.38
2022-10-13T16:34:12.694Z,18.60
2022-10-13T16:36:40.075Z,16.00
2022-10-13T16:39:07.463Z,18.15
2022-10-13T16:41:34.886Z,19.20
2022-10-13T16:44:03.694Z,23.35
2022-10-13T16:46:32.922Z,18.50
2022-10-13T16:49:00.513Z,18.13
2022-10-13T16:51:28.656Z,20.33
2022-10-13T16:54:02.708Z,19.10
2022-10-13T16:56:31.147Z,20.95
2022-10-13T16:58:59.073Z,17.05
2022-10-13T17:01:28.457Z,17.92
2022-10-13T17:03:56.041Z,22.70
2022-10-13T17:06:24.160Z,19.27
2022-10-13T17:08:51.501Z,21.88
2022-10-13T17:11:19.713Z,23.90
2022-10-13T17:13:47.350Z,21.40
2022-10-13T17:16:15.122Z,19.15
2022-10-13T17:18:43.828Z,19.77
2022-10-13T17:21:13.424Z,20.35
2022-10-13T17:23:44.617Z,21.98
2022-10-13T17:26:15.959Z,20.10
2022-10-13T17:28:43.922Z,18.90
2022-10-13T17:31:13.459Z,24.67
2022-10-13T17:33:41.596Z,24.00
2022-10-13T17:36:13.798Z,21.35
2022-10-13T17:38:41.478Z,24.52
2022-10-13T17:41:09.297Z,26.80
2022-10-13T17:43:37.667Z,24.55
2022-10-13T17:46:34.481Z,19.17
2022-10-13T17:48:55.785Z,22.88
2022-10-13T17:51:25.106Z,22.92
2022-10-13T17:53:53.347Z,19.20
2022-10-13T17:56:21.645Z,20.25
2022-10-13T17:58:50.092Z,23.58
2022-10-13T18:01:18.766Z,20.98
2022-10-13T18:03:46.814Z,25.52
2022-10-13T18:06:14.861Z,25.67
2022-10-13T18:08:44.012Z,20.85
2022-10-13T18:11:12.684Z,23.38
2022-10-13T18:13:40.168Z,22.08
2022-10-13T18:16:09.252Z,20.45
2022-10-13T18:18:36.689Z,21.80
2022-10-13T18:21:04.742Z,27.90
2022-10-13T18:23:32.364Z,25.40
2022-10-13T18:26:04.574Z,23.60
2022-10-13T18:28:32.411Z,20.98
2022-10-13T18:31:03.222Z,23.90
2022-10-13T18:33:30.576Z,21.48
2022-10-13T18:35:57.986Z,23.20
2022-10-13T18:38:25.330Z,29.42
2022-10-13T18:40:52.774Z,25.42
2022-10-13T18:43:21.926Z,24.15
2022-10-13T18:45:49.296Z,25.02
2022-10-13T18:48:17.045Z,25.63
2022-10-13T18:50:44.541Z,27.15
2022-10-13T18:53:11.899Z,37.30
2022-10-13T18:55:42.693Z,32.60
2022-10-13T18:58:10.195Z,41.60
2022-10-13T19:00:39.904Z,30.75
2022-10-13T19:03:07.381Z,31.42
2022-10-13T19:05:37.741Z,27.15
2022-10-13T19:08:09.265Z,26.90
2022-10-13T19:10:37.241Z,27.80
2022-10-13T19:13:04.688Z,27.42
2022-10-13T19:15:32.109Z,23.60
2022-10-13T19:18:00.779Z,27.60
2022-10-13T19:20:28.114Z,24.83
2022-10-13T19:22:55.485Z,28.30
2022-10-13T19:25:22.980Z,30.10
2022-10-13T19:27:50.327Z,28.73
2022-10-13T19:30:17.891Z,28.20
2022-10-13T19:32:45.270Z,23.65
2022-10-13T19:35:14.190Z,26.65
2022-10-13T19:37:41.571Z,27.60
2022-10-13T19:40:09.099Z,31.15
2022-10-13T19:42:36.455Z,24.52
2022-10-13T19:45:05.500Z,23.60
2022-10-13T19:47:32.878Z,25.17
2022-10-13T19:50:00.230Z,27.15
2022-10-13T19:52:28.907Z,23.67
2022-10-13T19:54:56.288Z,26.60
2022-10-13T19:57:23.896Z,28.25
2022-10-13T19:59:51.461Z,25.15
2022-10-13T20:02:18.875Z,27.10
2022-10-13T20:04:46.360Z,24.92
2022-10-13T20:07:14.103Z,22.58
2022-10-13T20:09:43.021Z,30.75
2022-10-13T20:12:10.421Z,30.38
2022-10-13T20:14:37.783Z,26.55
2022-10-13T20:17:05.157Z,30.05
2022-10-13T20:19:32.723Z,30.35
2022-10-13T20:22:01.577Z,32.05
2022-10-13T20:24:28.937Z,34.70
2022-10-13T20:26:57.652Z,30.10
2022-10-13T20:29:26.100Z,35.15
2022-10-13T20:31:53.512Z,37.92
2022-10-13T20:34:20.859Z,36.30
2022-10-13T20:36:50.167Z,28.00
2022-10-13T20:39:17.583Z,32.50
2022-10-13T20:41:45.042Z,33.50
2022-10-13T20:44:13.788Z,28.95
2022-10-13T20:46:41.190Z,26.20
2022-10-13T20:49:11.293Z,28.33
2022-10-13T20:51:39.958Z,28.77
2022-10-13T20:54:07.804Z,27.75
2022-10-13T20:56:35.630Z,28.23
2022-10-13T20:59:03.401Z,29.25
2022-10-13T21:01:32.119Z,28.02
2022-10-13T21:03:59.474Z,27.58
2022-10-13T21:06:26.937Z,26.92
2022-10-13T21:08:54.815Z,32.17
2022-10-13T21:11:22.979Z,29.40
2022-10-13T21:13:50.831Z,29.13
2022-10-13T21:16:19.055Z,28.95
2022-10-13T21:18:48.997Z,33.25
2022-10-13T21:21:17.497Z,32.15
2022-10-13T21:23:44.879Z,31.67
2022-10-13T21:26:15.221Z,28.20
2022-10-13T21:28:45.111Z,30.63
2022-10-13T21:31:13.552Z,28.60
2022-10-13T21:33:41.387Z,28.30
2022-10-13T21:36:11.104Z,29.77
2022-10-13T21:38:39.336Z,40.35
2022-10-13T21:41:07.323Z,25.58
2022-10-13T21:43:34.796Z,26.63
2022-10-13T21:46:08.701Z,28.60
2022-10-13T21:48:36.459Z,30.10
2022-10-13T21:51:12.324Z,28.80
2022-10-13T21:53:39.741Z,31.38
2022-10-13T21:56:07.902Z,33.90
2022-10-13T21:58:35.345Z,27.40
2022-10-13T22:01:03.078Z,35.05
2022-10-13T22:03:30.476Z,31.70
2022-10-13T22:05:57.842Z,31.30
2022-10-13T22:08:38.000Z,28.38
2022-10-13T22:11:05.954Z,35.47
2022-10-13T22:13:33.409Z,34.80
2022-10-13T22:16:02.917Z,30.00
2022-10-13T22:18:30.282Z,29.48
2022-10-13T22:21:00.654Z,31.85
2022-10-13T22:23:29.443Z,33.65
2022-10-13T22:25:57.162Z,38.40
2022-10-13T22:28:24.781Z,29.85
2022-10-13T22:30:52.579Z,38.30
2022-10-13T22:33:20.180Z,29.55
2022-10-13T22:35:47.574Z,34.15
2022-10-13T22:38:15.286Z,28.83
2022-10-13T22:40:44.023Z,33.10
2022-10-13T22:43:11.357Z,28.63
2022-10-13T22:45:38.752Z,30.00
2022-10-13T22:48:06.546Z,32.88
2022-10-13T22:50:35.211Z,30.65
2022-10-13T22:53:02.550Z,30.98
2022-10-13T22:55:29.916Z,32.05
2022-10-13T22:57:58.612Z,26.23
2022-10-13T23:00:26.011Z,30.88
2022-10-13T23:02:53.358Z,32.30
2022-10-13T23:05:20.783Z,26.17
2022-10-13T23:07:48.129Z,30.95
2022-10-13T23:10:15.575Z,31.95
2022-10-13T23:12:42.953Z,31.17
2022-10-13T23:15:12.144Z,29.50
2022-10-13T23:17:39.550Z,32.72
2022-10-13T23:20:07.575Z,28.13
2022-10-13T23:22:35.003Z,31.27
2022-10-13T23:25:02.431Z,30.90
2022-10-13T23:27:29.831Z,30.67
2022-10-13T23:29:57.192Z,32.20
2022-10-13T23:32:25.903Z,32.03
2022-10-13T23:34:53.243Z,31.05
2022-10-13T23:37:20.781Z,30.70
2022-10-13T23:39:48.323Z,30.48
2022-10-13T23:42:15.739Z,28.65
2022-10-13T23:44:43.158Z,31.65
2022-10-13T23:47:10.524Z,31.77
2022-10-13T23:49:39.594Z,30.05
2022-10-13T23:52:10.735Z,34.50
2022-10-13T23:54:38.510Z,30.80
2022-10-13T23:57:05.872Z,33.00
2022-10-13T23:59:33.449Z,33.67
